sensor_id;sensor_type;location;lat;lon;timestamp;pressure;altitude;pressure_sealevel;temperature;humidity
63194;BME280;49289;51.670;5.624;2023-02-15T00:00:24;103066.27;;;9.48;52.75
63194;BME280;49289;51.670;5.624;2023-02-15T00:55:06;103045.41;;;9.06;53.69
63194;BME280;49289;51.670;5.624;2023-02-15T00:56:53;103041.00;;;9.03;53.69
63194;BME280;49289;51.670;5.624;2023-02-15T00:58:40;103016.92;;;8.92;53.58
63194;BME280;49289;51.670;5.624;2023-02-15T01:00:27;103016.44;;;8.94;53.76
63194;BME280;49289;51.670;5.624;2023-02-15T01:02:17;103017.91;;;9.00;53.87
63194;BME280;49289;51.670;5.624;2023-02-15T01:04:05;103017.23;;;8.96;53.92
63194;BME280;49289;51.670;5.624;2023-02-15T01:05:52;103038.65;;;9.02;53.96
63194;BME280;49289;51.670;5.624;2023-02-15T01:07:40;103012.71;;;8.92;53.93
63194;BME280;49289;51.670;5.624;2023-02-15T01:09:29;103011.16;;;8.99;53.88
63194;BME280;49289;51.670;5.624;2023-02-15T01:11:17;103023.60;;;9.03;54.02
63194;BME280;49289;51.670;5.624;2023-02-15T01:13:05;103023.83;;;9.09;53.90
63194;BME280;49289;51.670;5.624;2023-02-15T01:14:53;103027.66;;;9.12;53.85
63194;BME280;49289;51.670;5.624;2023-02-15T01:16:41;103008.58;;;8.96;53.80
63194;BME280;49289;51.670;5.624;2023-02-15T01:18:29;103019.64;;;8.99;53.85
63194;BME280;49289;51.670;5.624;2023-02-15T01:20:16;102997.45;;;8.85;53.90
63194;BME280;49289;51.670;5.624;2023-02-15T01:22:06;102999.52;;;8.85;53.95
63194;BME280;49289;51.670;5.624;2023-02-15T01:23:54;103012.22;;;8.96;53.93
63194;BME280;49289;51.670;5.624;2023-02-15T01:25:42;102994.00;;;8.92;53.92
63194;BME280;49289;51.670;5.624;2023-02-15T01:27:30;102999.77;;;8.88;53.93
63194;BME280;49289;51.670;5.624;2023-02-15T01:29:20;102997.00;;;8.85;53.87
63194;BME280;49289;51.670;5.624;2023-02-15T01:31:10;103008.77;;;8.99;53.73
63194;BME280;49289;51.670;5.624;2023-02-15T01:32:58;102991.45;;;8.89;53.67
63194;BME280;49289;51.670;5.624;2023-02-15T01:34:46;103010.52;;;8.98;53.71
63194;BME280;49289;51.670;5.624;2023-02-15T01:36:34;102986.09;;;8.77;53.82
63194;BME280;49289;51.670;5.624;2023-02-15T01:38:21;103001.09;;;8.87;53.88
63194;BME280;49289;51.670;5.624;2023-02-15T01:40:11;103003.37;;;8.96;53.78
63194;BME280;49289;51.670;5.624;2023-02-15T01:41:57;103001.84;;;8.92;53.90
63194;BME280;49289;51.670;5.624;2023-02-15T01:43:52;102983.68;;;8.80;53.87
63194;BME280;49289;51.670;5.624;2023-02-15T01:46:11;102984.61;;;8.67;53.99
63194;BME280;49289;51.670;5.624;2023-02-15T01:48:01;102993.99;;;8.76;53.94
63194;BME280;49289;51.670;5.624;2023-02-15T01:49:48;102984.25;;;8.73;53.90
63194;BME280;49289;51.670;5.624;2023-02-15T01:51:36;102990.56;;;8.78;53.89
63194;BME280;49289;51.670;5.624;2023-02-15T01:53:27;102984.61;;;8.71;53.97
63194;BME280;49289;51.670;5.624;2023-02-15T01:55:14;103003.56;;;8.73;54.02
63194;BME280;49289;51.670;5.624;2023-02-15T01:57:03;102988.66;;;8.65;53.96
63194;BME280;49289;51.670;5.624;2023-02-15T01:58:52;103001.27;;;8.71;53.99
63194;BME280;49289;51.670;5.624;2023-02-15T02:00:40;102979.73;;;8.64;53.91
63194;BME280;49289;51.670;5.624;2023-02-15T02:02:28;102983.97;;;8.62;54.05
63194;BME280;49289;51.670;5.624;2023-02-15T02:04:18;102983.20;;;8.67;53.93
63194;BME280;49289;51.670;5.624;2023-02-15T02:06:06;102999.58;;;8.77;53.91
63194;BME280;49289;51.670;5.624;2023-02-15T02:07:54;102979.63;;;8.58;54.09
63194;BME280;49289;51.670;5.624;2023-02-15T02:09:42;102994.88;;;8.69;53.97
63194;BME280;49289;51.670;5.624;2023-02-15T02:11:30;102976.44;;;8.64;53.88
63194;BME280;49289;51.670;5.624;2023-02-15T02:13:18;102967.98;;;8.54;54.08
63194;BME280;49289;51.670;5.624;2023-02-15T02:15:05;102963.82;;;8.51;53.96
63194;BME280;49289;51.670;5.624;2023-02-15T02:16:54;102959.63;;;8.48;53.93
63194;BME280;49289;51.670;5.624;2023-02-15T02:18:47;102961.01;;;8.45;53.98
63194;BME280;49289;51.670;5.624;2023-02-15T02:20:50;102982.01;;;8.61;53.77
63194;BME280;49289;51.670;5.624;2023-02-15T02:25:05;102964.34;;;8.49;53.94
63194;BME280;49289;51.670;5.624;2023-02-15T02:31:47;102965.39;;;8.33;54.22
63194;BME280;49289;51.670;5.624;2023-02-15T02:33:57;102977.51;;;8.38;54.35
63194;BME280;49289;51.670;5.624;2023-02-15T02:35:47;102977.27;;;8.35;54.41
63194;BME280;49289;51.670;5.624;2023-02-15T02:37:34;102960.19;;;8.31;54.24
63194;BME280;49289;51.670;5.624;2023-02-15T02:39:28;102957.76;;;8.31;54.21
63194;BME280;49289;51.670;5.624;2023-02-15T02:41:20;102955.54;;;8.28;54.19
63194;BME280;49289;51.670;5.624;2023-02-15T02:43:05;102950.69;;;8.23;54.30
63194;BME280;49289;51.670;5.624;2023-02-15T02:44:54;102952.81;;;8.30;54.28
63194;BME280;49289;51.670;5.624;2023-02-15T02:46:44;102945.28;;;8.30;54.20
63194;BME280;49289;51.670;5.624;2023-02-15T02:48:32;102951.13;;;8.32;54.37
63194;BME280;49289;51.670;5.624;2023-02-15T02:50:22;102942.56;;;8.30;54.47
63194;BME280;49289;51.670;5.624;2023-02-15T02:52:33;102958.24;;;8.39;54.46
63194;BME280;49289;51.670;5.624;2023-02-15T02:53:58;102952.64;;;8.44;54.45
63194;BME280;49289;51.670;5.624;2023-02-15T02:55:46;102935.58;;;8.32;54.44
63194;BME280;49289;51.670;5.624;2023-02-15T02:57:34;102926.48;;;8.43;54.28
63194;BME280;49289;51.670;5.624;2023-02-15T02:59:23;102922.22;;;8.34;54.51
63194;BME280;49289;51.670;5.624;2023-02-15T03:01:11;102924.64;;;8.37;54.51
63194;BME280;49289;51.670;5.624;2023-02-15T03:02:57;102932.34;;;8.38;54.57
63194;BME280;49289;51.670;5.624;2023-02-15T03:04:47;102923.98;;;8.35;54.66
63194;BME280;49289;51.670;5.624;2023-02-15T03:06:38;102926.56;;;8.42;54.80
63194;BME280;49289;51.670;5.624;2023-02-15T03:08:25;102920.09;;;8.41;54.83
63194;BME280;49289;51.670;5.624;2023-02-15T03:10:12;102920.85;;;8.42;54.70
63194;BME280;49289;51.670;5.624;2023-02-15T03:11:59;102941.18;;;8.55;54.62
63194;BME280;49289;51.670;5.624;2023-02-15T03:13:46;102941.63;;;8.50;54.66
63194;BME280;49289;51.670;5.624;2023-02-15T03:15:37;102925.81;;;8.32;54.65
63194;BME280;49289;51.670;5.624;2023-02-15T03:17:25;102918.05;;;8.24;54.61
63194;BME280;49289;51.670;5.624;2023-02-15T03:19:12;102916.06;;;8.17;54.74
63194;BME280;49289;51.670;5.624;2023-02-15T03:20:59;102920.78;;;8.27;54.45
63194;BME280;49289;51.670;5.624;2023-02-15T03:22:50;102911.83;;;8.22;54.45
63194;BME280;49289;51.670;5.624;2023-02-15T03:24:37;102910.55;;;8.26;54.52
63194;BME280;49289;51.670;5.624;2023-02-15T03:26:25;102912.55;;;8.26;54.69
63194;BME280;49289;51.670;5.624;2023-02-15T03:28:13;102899.10;;;8.26;54.61
63194;BME280;49289;51.670;5.624;2023-02-15T03:30:02;102913.75;;;8.29;54.60
63194;BME280;49289;51.670;5.624;2023-02-15T03:31:52;102909.70;;;8.24;54.72
63194;BME280;49289;51.670;5.624;2023-02-15T03:33:40;102902.34;;;8.19;54.79
63194;BME280;49289;51.670;5.624;2023-02-15T03:35:29;102919.45;;;8.29;54.82
63194;BME280;49289;51.670;5.624;2023-02-15T03:37:16;102896.48;;;8.20;54.76
63194;BME280;49289;51.670;5.624;2023-02-15T03:39:04;102888.16;;;8.29;54.70
63194;BME280;49289;51.670;5.624;2023-02-15T03:40:51;102896.20;;;8.24;54.99
63194;BME280;49289;51.670;5.624;2023-02-15T03:42:38;102894.80;;;8.30;54.87
63194;BME280;49289;51.670;5.624;2023-02-15T03:44:29;102886.94;;;8.28;54.83
63194;BME280;49289;51.670;5.624;2023-02-15T03:46:19;102884.27;;;8.25;55.02
63194;BME280;49289;51.670;5.624;2023-02-15T03:48:04;102885.05;;;8.23;55.14
63194;BME280;49289;51.670;5.624;2023-02-15T03:49:52;102875.32;;;8.26;55.10
63194;BME280;49289;51.670;5.624;2023-02-15T03:51:42;102886.31;;;8.39;54.99
63194;BME280;49289;51.670;5.624;2023-02-15T03:53:29;102880.77;;;8.38;55.13
63194;BME280;49289;51.670;5.624;2023-02-15T03:55:16;102900.45;;;8.50;55.08
63194;BME280;49289;51.670;5.624;2023-02-15T03:57:06;102882.30;;;8.41;55.25
63194;BME280;49289;51.670;5.624;2023-02-15T03:58:53;102869.19;;;8.36;55.15
63194;BME280;49289;51.670;5.624;2023-02-15T04:00:43;102879.11;;;8.39;55.16
63194;BME280;49289;51.670;5.624;2023-02-15T04:02:30;102883.12;;;8.36;55.30
63194;BME280;49289;51.670;5.624;2023-02-15T04:04:19;102897.81;;;8.53;55.11
63194;BME280;49289;51.670;5.624;2023-02-15T04:06:07;102880.11;;;8.40;55.09
63194;BME280;49289;51.670;5.624;2023-02-15T04:07:56;102893.20;;;8.48;55.11
63194;BME280;49289;51.670;5.624;2023-02-15T04:09:44;102877.64;;;8.39;55.04
63194;BME280;49289;51.670;5.624;2023-02-15T04:11:32;102878.83;;;8.37;54.87
63194;BME280;49289;51.670;5.624;2023-02-15T04:13:20;102879.98;;;8.34;54.95
63194;BME280;49289;51.670;5.624;2023-02-15T04:15:11;102879.60;;;8.33;54.82
63194;BME280;49289;51.670;5.624;2023-02-15T04:16:57;102878.75;;;8.24;54.98
63194;BME280;49289;51.670;5.624;2023-02-15T04:18:44;102894.63;;;8.35;54.81
63194;BME280;49289;51.670;5.624;2023-02-15T04:20:31;102904.04;;;8.36;54.65
63194;BME280;49289;51.670;5.624;2023-02-15T04:22:18;102904.39;;;8.32;54.66
63194;BME280;49289;51.670;5.624;2023-02-15T04:24:05;102903.08;;;8.28;54.52
63194;BME280;49289;51.670;5.624;2023-02-15T04:25:55;102890.50;;;8.08;54.64
63194;BME280;49289;51.670;5.624;2023-02-15T04:27:44;102885.56;;;8.09;54.52
63194;BME280;49289;51.670;5.624;2023-02-15T04:29:30;102902.81;;;8.17;54.53
63194;BME280;49289;51.670;5.624;2023-02-15T04:31:17;102903.66;;;8.21;54.47
63194;BME280;49289;51.670;5.624;2023-02-15T04:33:07;102886.80;;;8.01;54.54
63194;BME280;49289;51.670;5.624;2023-02-15T04:34:55;102883.87;;;7.97;54.65
63194;BME280;49289;51.670;5.624;2023-02-15T04:36:43;102885.47;;;7.96;54.63
63194;BME280;49289;51.670;5.624;2023-02-15T04:38:33;102885.13;;;7.90;54.71
63194;BME280;49289;51.670;5.624;2023-02-15T04:40:21;102880.17;;;7.85;54.79
63194;BME280;49289;51.670;5.624;2023-02-15T04:42:08;102877.89;;;7.79;54.85
63194;BME280;49289;51.670;5.624;2023-02-15T04:43:58;102884.02;;;7.88;54.75
63194;BME280;49289;51.670;5.624;2023-02-15T04:45:46;102876.97;;;7.87;54.87
63194;BME280;49289;51.670;5.624;2023-02-15T04:47:34;102871.97;;;7.81;54.83
63194;BME280;49289;51.670;5.624;2023-02-15T04:49:22;102875.23;;;7.91;54.74
63194;BME280;49289;51.670;5.624;2023-02-15T04:51:10;102894.03;;;8.06;54.72
63194;BME280;49289;51.670;5.624;2023-02-15T04:53:00;102876.20;;;7.92;54.87
63194;BME280;49289;51.670;5.624;2023-02-15T04:54:48;102874.53;;;7.91;54.96
63194;BME280;49289;51.670;5.624;2023-02-15T04:56:36;102873.67;;;7.93;54.87
63194;BME280;49289;51.670;5.624;2023-02-15T04:58:24;102864.39;;;7.91;54.82
63194;BME280;49289;51.670;5.624;2023-02-15T05:00:13;102870.02;;;7.95;54.83
63194;BME280;49289;51.670;5.624;2023-02-15T05:02:00;102885.50;;;7.97;54.87
63194;BME280;49289;51.670;5.624;2023-02-15T05:03:48;102859.59;;;7.78;54.85
63194;BME280;49289;51.670;5.624;2023-02-15T05:05:35;102857.18;;;7.77;54.80
63194;BME280;49289;51.670;5.624;2023-02-15T05:07:23;102875.55;;;7.92;54.77
63194;BME280;49289;51.670;5.624;2023-02-15T05:09:12;102855.20;;;7.79;54.88
63194;BME280;49289;51.670;5.624;2023-02-15T05:11:01;102858.64;;;7.88;54.86
63194;BME280;49289;51.670;5.624;2023-02-15T05:12:49;102873.38;;;7.96;55.02
63194;BME280;49289;51.670;5.624;2023-02-15T05:14:37;102860.30;;;7.82;55.24
63194;BME280;49289;51.670;5.624;2023-02-15T05:16:24;102870.26;;;7.92;55.23
63194;BME280;49289;51.670;5.624;2023-02-15T05:18:11;102857.77;;;7.90;55.08
63194;BME280;49289;51.670;5.624;2023-02-15T05:20:00;102865.84;;;7.99;55.07
63194;BME280;49289;51.670;5.624;2023-02-15T05:21:48;102849.09;;;7.86;55.11
63194;BME280;49289;51.670;5.624;2023-02-15T05:23:38;102855.66;;;7.87;55.25
63194;BME280;49289;51.670;5.624;2023-02-15T05:25:26;102850.34;;;7.78;55.69
63194;BME280;49289;51.670;5.624;2023-02-15T05:27:13;102843.19;;;7.78;56.03
63194;BME280;49289;51.670;5.624;2023-02-15T05:29:03;102848.62;;;7.87;56.03
63194;BME280;49289;51.670;5.624;2023-02-15T05:30:51;102863.92;;;7.99;56.01
63194;BME280;49289;51.670;5.624;2023-02-15T05:32:39;102846.67;;;7.91;56.10
63194;BME280;49289;51.670;5.624;2023-02-15T05:34:29;102851.67;;;7.97;55.92
63194;BME280;49289;51.670;5.624;2023-02-15T05:36:17;102844.85;;;7.92;55.87
63194;BME280;49289;51.670;5.624;2023-02-15T05:38:05;102862.95;;;8.07;55.69
63194;BME280;49289;51.670;5.624;2023-02-15T05:39:53;102866.94;;;8.09;55.67
63194;BME280;49289;51.670;5.624;2023-02-15T05:41:42;102853.13;;;7.97;55.74
63194;BME280;49289;51.670;5.624;2023-02-15T05:43:30;102848.59;;;8.00;55.66
63194;BME280;49289;51.670;5.624;2023-02-15T05:45:19;102864.91;;;8.18;55.49
63194;BME280;49289;51.670;5.624;2023-02-15T05:47:07;102851.13;;;8.13;55.42
63194;BME280;49289;51.670;5.624;2023-02-15T05:48:57;102846.20;;;8.05;55.47
63194;BME280;49289;51.670;5.624;2023-02-15T05:50:45;102864.45;;;8.10;55.53
63194;BME280;49289;51.670;5.624;2023-02-15T05:52:33;102848.86;;;8.04;55.41
63194;BME280;49289;51.670;5.624;2023-02-15T05:54:23;102840.67;;;7.98;55.39
63194;BME280;49289;51.670;5.624;2023-02-15T05:56:11;102852.63;;;8.01;55.37
63194;BME280;49289;51.670;5.624;2023-02-15T05:57:59;102855.57;;;7.95;55.33
63194;BME280;49289;51.670;5.624;2023-02-15T05:59:49;102854.86;;;8.01;55.24
63194;BME280;49289;51.670;5.624;2023-02-15T06:01:37;102862.25;;;8.08;55.19
63194;BME280;49289;51.670;5.624;2023-02-15T06:03:25;102849.26;;;7.97;55.26
63194;BME280;49289;51.670;5.624;2023-02-15T06:05:15;102857.30;;;8.02;55.18
63194;BME280;49289;51.670;5.624;2023-02-15T06:07:03;102842.98;;;7.99;55.18
63194;BME280;49289;51.670;5.624;2023-02-15T06:08:50;102867.54;;;8.01;55.28
63194;BME280;49289;51.670;5.624;2023-02-15T06:10:37;102848.06;;;7.86;55.20
63194;BME280;49289;51.670;5.624;2023-02-15T06:12:25;102850.66;;;7.86;55.22
63194;BME280;49289;51.670;5.624;2023-02-15T06:14:13;102869.06;;;7.89;55.17
63194;BME280;49289;51.670;5.624;2023-02-15T06:16:02;102855.67;;;7.78;55.25
63194;BME280;49289;51.670;5.624;2023-02-15T06:17:50;102854.81;;;7.78;55.12
63194;BME280;49289;51.670;5.624;2023-02-15T06:19:37;102873.33;;;7.89;55.14
63194;BME280;49289;51.670;5.624;2023-02-15T06:21:27;102856.31;;;7.74;55.12
63194;BME280;49289;51.670;5.624;2023-02-15T06:23:15;102872.82;;;7.83;55.06
63194;BME280;49289;51.670;5.624;2023-02-15T06:25:03;102862.00;;;7.78;55.00
63194;BME280;49289;51.670;5.624;2023-02-15T06:26:51;102853.30;;;7.66;55.15
63194;BME280;49289;51.670;5.624;2023-02-15T06:28:38;102855.16;;;7.63;55.05
63194;BME280;49289;51.670;5.624;2023-02-15T06:30:26;102848.89;;;7.54;55.17
63194;BME280;49289;51.670;5.624;2023-02-15T06:32:13;102865.86;;;7.64;55.14
63194;BME280;49289;51.670;5.624;2023-02-15T06:34:01;102853.69;;;7.59;55.15
63194;BME280;49289;51.670;5.624;2023-02-15T06:35:51;102849.48;;;7.59;55.10
63194;BME280;49289;51.670;5.624;2023-02-15T06:37:40;102855.83;;;7.65;55.19
63194;BME280;49289;51.670;5.624;2023-02-15T06:39:28;102870.27;;;7.74;55.28
63194;BME280;49289;51.670;5.624;2023-02-15T06:41:16;102869.73;;;7.71;55.40
63194;BME280;49289;51.670;5.624;2023-02-15T06:43:04;102868.80;;;7.71;55.33
63194;BME280;49289;51.670;5.624;2023-02-15T06:44:52;102851.27;;;7.67;55.24
63194;BME280;49289;51.670;5.624;2023-02-15T06:46:39;102872.57;;;7.78;55.31
63194;BME280;49289;51.670;5.624;2023-02-15T06:48:26;102849.02;;;7.67;55.33
63194;BME280;49289;51.670;5.624;2023-02-15T06:50:16;102854.08;;;7.67;55.46
63194;BME280;49289;51.670;5.624;2023-02-15T06:52:05;102844.25;;;7.66;55.48
63194;BME280;49289;51.670;5.624;2023-02-15T06:53:55;102848.48;;;7.67;55.47
63194;BME280;49289;51.670;5.624;2023-02-15T06:55:42;102857.05;;;7.75;55.52
63194;BME280;49289;51.670;5.624;2023-02-15T06:57:29;102858.48;;;7.77;55.49
63194;BME280;49289;51.670;5.624;2023-02-15T06:59:17;102840.52;;;7.70;55.52
63194;BME280;49289;51.670;5.624;2023-02-15T07:01:07;102843.87;;;7.77;55.49
63194;BME280;49289;51.670;5.624;2023-02-15T07:02:58;102857.55;;;7.81;55.52
63194;BME280;49289;51.670;5.624;2023-02-15T07:04:48;102833.44;;;7.65;55.54
63194;BME280;49289;51.670;5.624;2023-02-15T07:06:36;102841.10;;;7.70;55.45
63194;BME280;49289;51.670;5.624;2023-02-15T07:08:26;102832.98;;;7.75;55.34
63194;BME280;49289;51.670;5.624;2023-02-15T07:10:14;102833.50;;;7.78;55.23
63194;BME280;49289;51.670;5.624;2023-02-15T07:12:03;102828.91;;;7.72;55.48
63194;BME280;49289;51.670;5.624;2023-02-15T07:13:51;102828.96;;;7.74;55.49
63194;BME280;49289;51.670;5.624;2023-02-15T07:15:39;102827.13;;;7.76;55.57
63194;BME280;49289;51.670;5.624;2023-02-15T07:17:28;102846.91;;;7.90;55.59
63194;BME280;49289;51.670;5.624;2023-02-15T07:19:16;102825.69;;;7.79;55.64
63194;BME280;49289;51.670;5.624;2023-02-15T07:21:03;102840.31;;;7.98;55.64
63194;BME280;49289;51.670;5.624;2023-02-15T07:22:50;102821.36;;;7.88;55.65
63194;BME280;49289;51.670;5.624;2023-02-15T07:24:38;102834.42;;;7.96;55.81
63194;BME280;49289;51.670;5.624;2023-02-15T07:26:26;102835.30;;;7.97;55.96
63194;BME280;49289;51.670;5.624;2023-02-15T07:28:14;102818.41;;;7.93;55.81
63194;BME280;49289;51.670;5.624;2023-02-15T07:30:04;102822.59;;;8.05;55.69
63194;BME280;49289;51.670;5.624;2023-02-15T07:31:52;102816.78;;;8.02;55.81
63194;BME280;49289;51.670;5.624;2023-02-15T07:33:39;102814.74;;;8.03;55.93
63194;BME280;49289;51.670;5.624;2023-02-15T07:35:27;102817.31;;;8.14;55.81
63194;BME280;49289;51.670;5.624;2023-02-15T07:37:14;102832.50;;;8.30;55.80
63194;BME280;49289;51.670;5.624;2023-02-15T07:39:03;102837.27;;;8.32;55.91
63194;BME280;49289;51.670;5.624;2023-02-15T07:40:56;102823.02;;;8.30;55.85
63194;BME280;49289;51.670;5.624;2023-02-15T07:42:40;102827.67;;;8.35;55.89
63194;BME280;49289;51.670;5.624;2023-02-15T07:44:27;102833.77;;;8.47;55.85
63194;BME280;49289;51.670;5.624;2023-02-15T07:46:15;102831.72;;;8.48;55.86
63194;BME280;49289;51.670;5.624;2023-02-15T07:48:05;102814.55;;;8.31;56.27
63194;BME280;49289;51.670;5.624;2023-02-15T07:49:52;102831.98;;;8.61;56.13
63194;BME280;49289;51.670;5.624;2023-02-15T07:51:42;102818.21;;;8.53;56.43
63194;BME280;49289;51.670;5.624;2023-02-15T07:53:30;102808.70;;;8.48;56.61
63194;BME280;49289;51.670;5.624;2023-02-15T07:55:19;102820.63;;;8.61;56.55
63194;BME280;49289;51.670;5.624;2023-02-15T07:57:07;102812.41;;;8.65;56.51
63194;BME280;49289;51.670;5.624;2023-02-15T07:58:54;102831.75;;;8.72;56.81
63194;BME280;49289;51.670;5.624;2023-02-15T08:00:41;102812.94;;;8.86;56.14
63194;BME280;49289;51.670;5.624;2023-02-15T08:02:31;102815.23;;;8.93;56.27
63194;BME280;49289;51.670;5.624;2023-02-15T08:04:19;102807.67;;;9.03;56.16
63194;BME280;49289;51.670;5.624;2023-02-15T08:06:08;102802.97;;;9.05;56.13
63194;BME280;49289;51.670;5.624;2023-02-15T08:07:55;102819.63;;;9.10;56.21
63194;BME280;49289;51.670;5.624;2023-02-15T08:09:42;102820.62;;;9.06;56.51
63194;BME280;49289;51.670;5.624;2023-02-15T08:11:31;102805.78;;;9.17;56.14
63194;BME280;49289;51.670;5.624;2023-02-15T08:13:19;102803.23;;;9.23;56.20
63194;BME280;49289;51.670;5.624;2023-02-15T08:15:06;102822.70;;;9.21;56.48
63194;BME280;49289;51.670;5.624;2023-02-15T08:16:54;102816.11;;;9.39;56.21
63194;BME280;49289;51.670;5.624;2023-02-15T08:18:40;102790.53;;;9.21;56.30
63194;BME280;49289;51.670;5.624;2023-02-15T08:20:29;102796.42;;;9.31;56.10
63194;BME280;49289;51.670;5.624;2023-02-15T08:22:17;102790.38;;;9.27;56.11
63194;BME280;49289;51.670;5.624;2023-02-15T08:24:04;102807.17;;;9.48;56.35
63194;BME280;49289;51.670;5.624;2023-02-15T08:25:51;102805.81;;;9.44;56.32
63194;BME280;49289;51.670;5.624;2023-02-15T08:27:41;102790.12;;;9.25;56.42
63194;BME280;49289;51.670;5.624;2023-02-15T08:29:30;102783.97;;;9.40;56.06
63194;BME280;49289;51.670;5.624;2023-02-15T08:31:18;102796.03;;;9.00;56.82
63194;BME280;49289;51.670;5.624;2023-02-15T08:33:06;102782.98;;;9.07;56.72
63194;BME280;49289;51.670;5.624;2023-02-15T08:34:55;102789.42;;;9.29;56.72
63194;BME280;49289;51.670;5.624;2023-02-15T08:36:44;102802.48;;;9.88;55.53
63194;BME280;49289;51.670;5.624;2023-02-15T08:40:34;102783.38;;;10.16;54.96
63194;BME280;49289;51.670;5.624;2023-02-15T08:42:23;102778.38;;;10.24;54.52
63194;BME280;49289;51.670;5.624;2023-02-15T08:44:10;102793.56;;;10.27;54.49
63194;BME280;49289;51.670;5.624;2023-02-15T08:45:57;102773.34;;;10.35;54.32
63194;BME280;49289;51.670;5.624;2023-02-15T08:47:45;102776.73;;;10.28;54.42
63194;BME280;49289;51.670;5.624;2023-02-15T08:49:35;102768.61;;;10.54;53.90
63194;BME280;49289;51.670;5.624;2023-02-15T08:51:24;102773.36;;;10.86;53.56
63194;BME280;49289;51.670;5.624;2023-02-15T08:53:13;102765.13;;;10.39;53.47
63194;BME280;49289;51.670;5.624;2023-02-15T08:55:00;102777.27;;;11.05;53.32
63194;BME280;49289;51.670;5.624;2023-02-15T08:56:47;102780.99;;;11.08;53.14
63194;BME280;49289;51.670;5.624;2023-02-15T08:58:34;102778.44;;;11.27;52.91
63194;BME280;49289;51.670;5.624;2023-02-15T09:00:23;102759.91;;;11.13;52.83
63194;BME280;49289;51.670;5.624;2023-02-15T09:02:10;102777.24;;;11.58;51.98
63194;BME280;49289;51.670;5.624;2023-02-15T09:03:58;102603.18;;;10.52;51.66
63194;BME280;49289;51.670;5.624;2023-02-15T09:05:44;102777.20;;;11.23;51.94
63194;BME280;49289;51.670;5.624;2023-02-15T09:07:32;102762.73;;;11.58;51.97
63194;BME280;49289;51.670;5.624;2023-02-15T09:09:22;102758.14;;;11.24;50.95
63194;BME280;49289;51.670;5.624;2023-02-15T09:11:17;102768.76;;;11.57;51.42
63194;BME280;49289;51.670;5.624;2023-02-15T09:13:04;102757.44;;;11.73;51.17
63194;BME280;49289;51.670;5.624;2023-02-15T09:14:52;102776.86;;;11.65;51.24
63194;BME280;49289;51.670;5.624;2023-02-15T09:16:41;102759.60;;;11.72;50.90
63194;BME280;49289;51.670;5.624;2023-02-15T09:18:31;102758.83;;;11.31;51.08
63194;BME280;49289;51.670;5.624;2023-02-15T09:20:19;102753.44;;;11.59;51.20
63194;BME280;49289;51.670;5.624;2023-02-15T09:22:09;102758.95;;;11.79;50.21
63194;BME280;49289;51.670;5.624;2023-02-15T09:23:58;102755.92;;;12.28;50.01
63194;BME280;49289;51.670;5.624;2023-02-15T09:25:44;102776.54;;;12.23;50.23
63194;BME280;49289;51.670;5.624;2023-02-15T09:27:31;102751.48;;;11.80;50.50
63194;BME280;49289;51.670;5.624;2023-02-15T09:29:18;102772.41;;;12.36;50.00
63194;BME280;49289;51.670;5.624;2023-02-15T09:31:11;102749.35;;;11.96;50.18
63194;BME280;49289;51.670;5.624;2023-02-15T09:32:59;102753.59;;;12.17;49.88
63194;BME280;49289;51.670;5.624;2023-02-15T09:34:46;102757.52;;;12.11;49.91
63194;BME280;49289;51.670;5.624;2023-02-15T09:36:35;102753.97;;;12.57;49.49
63194;BME280;49289;51.670;5.624;2023-02-15T09:38:22;102765.77;;;12.89;48.96
63194;BME280;49289;51.670;5.624;2023-02-15T09:40:11;102742.81;;;13.00;48.77
63194;BME280;49289;51.670;5.624;2023-02-15T09:44:11;102752.66;;;13.44;48.28
63194;BME280;49289;51.670;5.624;2023-02-15T09:48:33;102744.27;;;13.87;47.25
63194;BME280;49289;51.670;5.624;2023-02-15T09:50:23;102745.48;;;13.62;47.03
63194;BME280;49289;51.670;5.624;2023-02-15T09:52:19;102725.83;;;13.68;47.55
63194;BME280;49289;51.670;5.624;2023-02-15T09:54:12;102741.16;;;14.48;46.08
63194;BME280;49289;51.670;5.624;2023-02-15T09:56:02;102730.14;;;14.76;45.46
63194;BME280;49289;51.670;5.624;2023-02-15T09:57:49;102743.62;;;15.47;44.54
63194;BME280;49289;51.670;5.624;2023-02-15T09:59:39;102741.16;;;15.17;43.62
63194;BME280;49289;51.670;5.624;2023-02-15T10:01:30;102723.38;;;15.66;43.14
63194;BME280;49289;51.670;5.624;2023-02-15T10:03:23;102728.48;;;16.17;42.94
63194;BME280;49289;51.670;5.624;2023-02-15T10:05:18;102726.56;;;16.45;41.55
63194;BME280;49289;51.670;5.624;2023-02-15T10:07:08;102738.37;;;16.57;41.06
63194;BME280;49289;51.670;5.624;2023-02-15T10:09:06;102740.41;;;16.51;41.43
63194;BME280;49289;51.670;5.624;2023-02-15T10:10:57;102742.47;;;17.07;40.86
63194;BME280;49289;51.670;5.624;2023-02-15T10:12:52;102718.66;;;17.50;39.39
63194;BME280;49289;51.670;5.624;2023-02-15T10:14:46;102733.88;;;16.81;39.61
63194;BME280;49289;51.670;5.624;2023-02-15T10:16:35;102729.19;;;16.12;41.05
63194;BME280;49289;51.670;5.624;2023-02-15T10:18:33;102748.56;;;16.68;40.10
63194;BME280;49289;51.670;5.624;2023-02-15T10:20:25;102729.64;;;17.07;39.98
63194;BME280;49289;51.670;5.624;2023-02-15T10:22:15;102730.44;;;17.52;39.48
63194;BME280;49289;51.670;5.624;2023-02-15T10:24:22;102723.58;;;17.63;38.60
63194;BME280;49289;51.670;5.624;2023-02-15T10:26:11;102737.82;;;17.85;38.46
63194;BME280;49289;51.670;5.624;2023-02-15T10:27:59;102723.36;;;17.91;38.37
63194;BME280;49289;51.670;5.624;2023-02-15T10:29:48;102722.17;;;18.15;37.99
63194;BME280;49289;51.670;5.624;2023-02-15T10:31:37;102731.92;;;18.23;37.33
63194;BME280;49289;51.670;5.624;2023-02-15T10:33:31;102746.14;;;18.49;36.82
63194;BME280;49289;51.670;5.624;2023-02-15T10:35:05;102742.48;;;18.20;37.83
63194;BME280;49289;51.670;5.624;2023-02-15T10:37:01;102727.82;;;18.15;37.60
63194;BME280;49289;51.670;5.624;2023-02-15T10:38:49;102743.94;;;18.50;37.92
63194;BME280;49289;51.670;5.624;2023-02-15T10:40:46;102729.28;;;19.14;36.31